Terminal Aerodrome Forecast
Issued by NWS Sterling, VA

Current Version | Previous Version | Graphics & Text | Print | Product List | Glossary On
Versions: 1 2 3 4 5 6 7 8 9 10 11 12 13 14 15 16 17 18
000
FTUS41 KLWX 261737
TAFMRB
TAF
KMRB 261737Z 2618/2718 18006KT P6SM -SHRA SCT050 BKN090
     FM262100 19008KT P6SM VCTS BKN050CB BKN100
     FM270100 23005KT P6SM SCT050 OVC090
     FM270600 17004KT 5SM BR SCT050 BKN090
     FM271200 21005KT P6SM SCT050 BKN090
     FM271600 22006KT P6SM -SHRA BKN090 OVC100=

USA.gov is the U.S. government's official web portal to all federal, state and local government web resources and services.